createdAt,value
2022-12-14T06:45:07.595Z,78.95
2022-12-14T06:50:10.130Z,79.06
2022-12-14T06:55:12.163Z,78.56
2022-12-14T07:00:14.799Z,78.50
2022-12-14T07:05:16.994Z,78.16
2022-12-14T07:10:19.100Z,78.23
2022-12-14T07:15:21.176Z,77.98
2022-12-14T07:20:23.235Z,78.04
2022-12-14T07:25:25.365Z,77.79
2022-12-14T07:30:27.697Z,77.31
2022-12-14T07:35:29.869Z,77.12
2022-12-14T07:40:34.269Z,76.74
2022-12-14T07:45:36.713Z,76.46
2022-12-14T07:50:38.731Z,76.69
2022-12-14T07:55:40.789Z,76.62
2022-12-14T08:00:43.380Z,76.31
2022-12-14T08:05:45.371Z,76.12
2022-12-14T08:10:49.020Z,75.79
2022-12-14T08:15:51.053Z,74.83
2022-12-14T08:20:53.506Z,75.02
2022-12-14T08:25:57.196Z,74.92
2022-12-14T08:31:05.168Z,74.86
2022-12-14T08:36:08.657Z,74.37
2022-12-14T08:41:14.880Z,74.23
2022-12-14T08:46:17.478Z,73.64
2022-12-14T08:51:19.947Z,73.67
2022-12-14T08:56:25.671Z,73.29
2022-12-14T09:01:33.424Z,73.39
2022-12-14T09:06:38.791Z,73.16
2022-12-14T09:11:40.784Z,73.15
2022-12-14T09:16:42.859Z,72.93
2022-12-14T09:21:44.947Z,72.91
2022-12-14T09:26:47.622Z,72.98
2022-12-14T09:31:49.684Z,72.89
2022-12-14T09:36:53.054Z,72.90
2022-12-14T09:42:04.058Z,72.59
2022-12-14T09:47:24.659Z,72.62
2022-12-14T09:52:35.958Z,72.18
2022-12-14T09:57:41.561Z,71.53
2022-12-14T10:03:07.539Z,71.63
2022-12-14T10:08:18.980Z,71.58
2022-12-14T10:13:42.279Z,71.44
2022-12-14T10:19:00.905Z,71.49
2022-12-14T10:24:06.647Z,71.12
2022-12-14T10:29:37.395Z,70.74
2022-12-14T10:34:41.525Z,70.49
2022-12-14T10:40:26.027Z,70.34
2022-12-14T10:45:40.845Z,70.29
2022-12-14T10:51:04.930Z,70.73
2022-12-14T10:56:14.624Z,70.55
2022-12-14T11:01:16.818Z,69.59
2022-12-14T11:06:20.586Z,69.79
2022-12-14T11:11:25.919Z,69.92
2022-12-14T11:16:36.942Z,70.06
2022-12-14T11:21:39.677Z,69.75
2022-12-14T11:26:43.250Z,69.66
2022-12-14T11:31:48.090Z,69.79
2022-12-14T11:36:50.268Z,69.42
2022-12-14T11:42:02.081Z,69.50
2022-12-14T11:47:12.318Z,69.65
2022-12-14T11:52:20.026Z,70.05
2022-12-14T11:57:28.104Z,70.00
2022-12-14T12:02:47.723Z,69.82
2022-12-14T12:07:49.715Z,70.03
2022-12-14T12:13:00.935Z,69.74
2022-12-14T12:18:17.121Z,69.40
2022-12-14T12:23:25.104Z,69.49
2022-12-14T12:28:31.510Z,69.66
2022-12-14T12:33:46.724Z,69.67
2022-12-14T12:38:54.625Z,69.36
2022-12-14T12:44:06.539Z,69.23
2022-12-14T12:49:13.867Z,69.29
2022-12-14T12:54:26.440Z,69.05
2022-12-14T13:00:06.343Z,69.13
2022-12-14T13:05:44.616Z,68.98
2022-12-14T13:10:50.463Z,69.26
2022-12-14T13:16:19.467Z,69.26
2022-12-14T13:21:32.963Z,69.34
2022-12-14T13:27:06.175Z,69.02
2022-12-14T13:32:17.140Z,69.42
2022-12-14T13:37:31.339Z,69.39
2022-12-14T13:43:07.712Z,69.25
2022-12-14T13:48:39.822Z,69.16
2022-12-14T13:53:50.148Z,69.30
2022-12-14T13:58:55.090Z,69.57
2022-12-14T14:04:15.161Z,69.62
2022-12-14T14:09:26.230Z,70.03
2022-12-14T14:14:40.129Z,70.05
2022-12-14T14:19:42.651Z,70.24
2022-12-14T14:24:52.908Z,70.43
2022-12-14T14:29:55.803Z,70.60
2022-12-14T14:34:58.026Z,71.24
2022-12-14T14:40:29.186Z,71.42
2022-12-14T14:45:39.358Z,71.30
2022-12-14T14:50:42.857Z,71.55
2022-12-14T14:55:58.853Z,71.57
2022-12-14T15:01:03.629Z,71.59
2022-12-14T15:06:14.363Z,71.60
2022-12-14T15:11:21.456Z,71.74
2022-12-14T15:16:29.941Z,72.12
2022-12-14T15:21:32.484Z,72.08
2022-12-14T15:26:34.510Z,72.12
2022-12-14T15:31:40.259Z,72.48
2022-12-14T15:36:43.845Z,72.33
2022-12-14T15:41:45.875Z,72.44
2022-12-14T15:46:55.216Z,72.43
2022-12-14T15:51:58.518Z,72.69
2022-12-14T15:57:00.843Z,72.84
2022-12-14T16:02:21.698Z,73.20
2022-12-14T16:07:35.896Z,73.25
2022-12-14T16:12:45.385Z,73.33
2022-12-14T16:17:48.371Z,73.38
2022-12-14T16:23:05.310Z,73.30
2022-12-14T16:28:26.001Z,73.13
2022-12-14T16:33:29.780Z,73.28
2022-12-14T16:38:55.052Z,73.32
2022-12-14T16:44:01.483Z,73.19
2022-12-14T16:49:34.836Z,73.06
2022-12-14T16:54:38.184Z,73.11
2022-12-14T16:59:43.009Z,73.19
2022-12-14T17:04:46.520Z,73.14
2022-12-14T17:09:48.519Z,73.44
2022-12-14T17:14:51.079Z,73.53
2022-12-14T17:19:53.607Z,73.49
2022-12-14T17:24:56.002Z,73.47
2022-12-14T17:29:58.163Z,73.79
2022-12-14T17:35:00.409Z,74.03
2022-12-14T17:40:02.526Z,73.72
2022-12-14T17:45:05.863Z,73.56
2022-12-14T17:50:09.551Z,73.84
2022-12-14T17:55:22.842Z,74.03
2022-12-14T18:00:47.054Z,73.87
2022-12-14T18:05:49.998Z,74.14
2022-12-14T18:10:58.396Z,74.18
2022-12-14T18:16:01.103Z,73.87
2022-12-14T18:21:05.080Z,73.87
2022-12-14T18:26:07.224Z,74.11
2022-12-14T18:31:21.293Z,73.87
2022-12-14T18:36:24.007Z,73.67
2022-12-14T18:41:27.479Z,73.61
2022-12-14T18:46:29.615Z,73.56
2022-12-14T18:51:31.780Z,73.76
2022-12-14T18:56:33.843Z,73.71
2022-12-14T19:01:35.980Z,73.55
2022-12-14T19:06:46.009Z,73.25
2022-12-14T19:11:48.261Z,73.72
2022-12-14T19:16:50.287Z,74.09
2022-12-14T19:21:52.874Z,74.36
2022-12-14T19:26:54.904Z,74.03
2022-12-14T19:32:01.782Z,74.12
2022-12-14T19:37:07.009Z,74.36
2022-12-14T19:42:09.031Z,74.45
2022-12-14T19:47:11.611Z,74.61
2022-12-14T19:52:13.651Z,74.70
2022-12-14T19:57:15.755Z,74.88
2022-12-14T20:02:18.061Z,74.77
2022-12-14T20:07:20.220Z,74.46
2022-12-14T20:12:22.372Z,74.67
2022-12-14T20:17:24.512Z,74.84
2022-12-14T20:22:26.774Z,75.17
2022-12-14T20:27:28.827Z,75.31
2022-12-14T20:32:31.174Z,75.32
2022-12-14T20:37:33.240Z,75.58
2022-12-14T20:42:35.327Z,75.77
2022-12-14T20:47:37.393Z,76.03
2022-12-14T20:52:39.747Z,76.07
2022-12-14T20:57:41.943Z,75.97
2022-12-14T21:02:44.097Z,76.09
2022-12-14T21:07:46.448Z,75.94
2022-12-14T21:12:49.191Z,75.98
2022-12-14T21:17:51.512Z,76.08
